createdAt,value
2023-02-26T00:01:42.078Z,3.53
2023-02-26T00:04:10.562Z,3.49
2023-02-26T00:06:46.075Z,3.51
2023-02-26T00:09:13.254Z,3.53
2023-02-26T00:11:41.439Z,3.54
2023-02-26T00:14:14.793Z,3.53
2023-02-26T00:16:47.071Z,3.53
2023-02-26T00:19:15.009Z,3.53
2023-02-26T00:21:43.228Z,3.51
2023-02-26T00:24:11.115Z,3.53
2023-02-26T00:26:39.030Z,3.50
2023-02-26T00:29:07.513Z,3.50
2023-02-26T00:31:35.791Z,3.49
2023-02-26T00:34:04.169Z,3.47
2023-02-26T00:36:52.541Z,3.45
2023-02-26T00:39:43.470Z,3.44
2023-02-26T00:42:12.581Z,3.45
2023-02-26T00:44:41.253Z,3.47
2023-02-26T00:47:32.294Z,3.47
2023-02-26T00:50:14.035Z,3.47
2023-02-26T00:53:05.647Z,3.47
2023-02-26T00:55:33.525Z,3.49
2023-02-26T00:58:01.430Z,3.50
2023-02-26T01:00:31.090Z,3.41
2023-02-26T01:02:59.457Z,3.49
2023-02-26T01:05:28.153Z,3.41
2023-02-26T01:08:31.841Z,3.38
2023-02-26T01:11:00.406Z,3.33
2023-02-26T01:13:28.618Z,3.26
2023-02-26T01:16:02.357Z,3.22
2023-02-26T01:18:48.129Z,3.21
2023-02-26T01:21:21.285Z,3.20
2023-02-26T01:23:51.968Z,3.19
2023-02-26T01:26:24.853Z,3.18
2023-02-26T01:28:54.020Z,3.18
2023-02-26T01:31:48.437Z,3.18
2023-02-26T01:34:28.187Z,3.18
2023-02-26T01:37:04.190Z,3.17
2023-02-26T01:39:52.860Z,3.17
2023-02-26T01:42:27.430Z,3.18
2023-02-26T01:45:17.630Z,3.17
2023-02-26T01:48:04.924Z,3.14
2023-02-26T01:50:35.606Z,3.12
2023-02-26T01:53:24.952Z,3.08
2023-02-26T01:56:06.277Z,3.04
2023-02-26T01:58:36.860Z,3.02
2023-02-26T02:01:06.175Z,2.98
2023-02-26T02:03:38.815Z,2.93
2023-02-26T02:06:11.903Z,2.84
2023-02-26T02:08:40.913Z,2.78
2023-02-26T02:11:11.506Z,2.76
2023-02-26T02:14:22.829Z,2.73
2023-02-26T02:17:05.050Z,2.72
2023-02-26T02:19:53.050Z,2.75
2023-02-26T02:22:41.289Z,2.79
2023-02-26T02:25:41.635Z,2.83
2023-02-26T02:28:39.173Z,2.85
2023-02-26T02:31:12.619Z,2.80
2023-02-26T02:33:54.860Z,2.74
2023-02-26T02:36:46.129Z,2.71
2023-02-26T02:39:46.584Z,2.66
2023-02-26T02:42:28.494Z,2.63
2023-02-26T02:45:04.595Z,2.58
2023-02-26T02:47:35.243Z,2.49
2023-02-26T02:50:26.942Z,2.43
2023-02-26T02:53:00.743Z,2.38
2023-02-26T02:55:33.977Z,2.33
2023-02-26T02:58:10.169Z,2.33
2023-02-26T03:00:42.289Z,2.37
2023-02-26T03:03:43.042Z,2.39
2023-02-26T03:06:11.118Z,2.44
2023-02-26T03:08:41.964Z,2.46
2023-02-26T03:11:10.107Z,2.45
2023-02-26T03:13:40.567Z,2.46
2023-02-26T03:16:34.923Z,2.46
2023-02-26T03:19:25.925Z,2.47
2023-02-26T03:22:08.575Z,2.49
2023-02-26T03:25:12.055Z,2.52
2023-02-26T03:28:03.189Z,2.55
2023-02-26T03:30:39.399Z,2.56
2023-02-26T03:33:21.738Z,2.58
2023-02-26T03:36:09.781Z,2.59
2023-02-26T03:38:46.915Z,2.60
2023-02-26T03:41:31.884Z,2.60
2023-02-26T03:44:10.462Z,2.60
2023-02-26T03:46:46.270Z,2.54
2023-02-26T03:49:22.285Z,2.52
2023-02-26T03:51:52.178Z,2.51
2023-02-26T03:54:38.607Z,2.52
2023-02-26T03:57:25.449Z,2.53
2023-02-26T03:59:55.000Z,2.51
2023-02-26T04:02:51.256Z,2.52
2023-02-26T04:05:35.722Z,2.52
2023-02-26T04:08:03.849Z,2.49
2023-02-26T04:10:54.618Z,2.43
2023-02-26T04:13:23.093Z,2.40
2023-02-26T04:15:51.753Z,2.38
2023-02-26T04:18:19.444Z,2.38
2023-02-26T04:20:47.068Z,2.38
2023-02-26T04:23:14.629Z,2.37
2023-02-26T04:25:42.442Z,2.39
2023-02-26T04:28:11.438Z,2.38
2023-02-26T04:30:39.312Z,2.38
2023-02-26T04:33:07.775Z,2.38
2023-02-26T04:35:35.581Z,2.38
2023-02-26T04:38:05.896Z,2.35
2023-02-26T04:40:33.540Z,2.33
2023-02-26T04:43:01.517Z,2.31
2023-02-26T04:45:31.030Z,2.28
2023-02-26T04:47:58.634Z,2.25
2023-02-26T04:50:26.459Z,2.25
2023-02-26T04:52:54.451Z,2.23
2023-02-26T04:55:22.450Z,2.20
2023-02-26T04:57:50.202Z,2.19
2023-02-26T05:00:19.847Z,2.18
2023-02-26T05:02:48.295Z,2.17
2023-02-26T05:05:16.127Z,2.17
2023-02-26T05:07:43.805Z,2.17
2023-02-26T05:10:12.472Z,2.17
2023-02-26T05:12:41.163Z,2.18
2023-02-26T05:15:09.560Z,2.19
2023-02-26T05:17:37.400Z,2.20
2023-02-26T05:20:09.071Z,2.19
2023-02-26T05:22:38.628Z,2.19
2023-02-26T05:25:07.405Z,2.20
2023-02-26T05:27:35.120Z,2.14
2023-02-26T05:30:04.304Z,2.11
2023-02-26T05:32:32.081Z,2.10
2023-02-26T05:35:00.020Z,2.07
2023-02-26T05:37:27.961Z,2.04
2023-02-26T05:39:55.593Z,2.01
2023-02-26T05:42:23.380Z,1.97
2023-02-26T05:44:51.429Z,1.94
2023-02-26T05:47:19.302Z,1.91
2023-02-26T05:49:47.068Z,1.87
2023-02-26T05:52:15.193Z,1.85
2023-02-26T05:54:42.895Z,1.84
2023-02-26T05:57:10.826Z,1.84
2023-02-26T05:59:38.580Z,1.84
2023-02-26T06:02:06.678Z,1.84
2023-02-26T06:04:35.019Z,1.83
2023-02-26T06:07:03.407Z,1.81
2023-02-26T06:09:31.081Z,1.81
2023-02-26T06:11:58.940Z,1.82
2023-02-26T06:14:26.840Z,1.81
2023-02-26T06:16:54.652Z,1.81
2023-02-26T06:19:22.715Z,1.83
2023-02-26T06:21:50.594Z,1.84
2023-02-26T06:24:18.549Z,1.83
2023-02-26T06:26:46.391Z,1.84
2023-02-26T06:29:14.202Z,1.83
2023-02-26T06:31:42.136Z,1.86
2023-02-26T06:34:10.269Z,1.91
2023-02-26T06:36:38.392Z,1.92
2023-02-26T06:39:07.549Z,1.95
2023-02-26T06:41:35.791Z,1.96
2023-02-26T06:44:04.024Z,1.97
2023-02-26T06:46:31.803Z,2.00
2023-02-26T06:48:59.913Z,2.02
2023-02-26T06:51:27.809Z,2.05
2023-02-26T06:53:55.701Z,2.08
2023-02-26T06:56:27.580Z,2.11
2023-02-26T06:58:56.059Z,2.12
2023-02-26T07:01:24.210Z,2.14
2023-02-26T07:03:51.930Z,2.15
2023-02-26T07:06:27.555Z,2.20
2023-02-26T07:08:49.345Z,2.20
2023-02-26T07:11:17.071Z,2.21
2023-02-26T07:13:44.877Z,2.22
2023-02-26T07:16:12.863Z,2.21
2023-02-26T07:18:40.602Z,2.24
2023-02-26T07:21:09.126Z,2.27
2023-02-26T07:23:37.025Z,2.31
2023-02-26T07:26:05.212Z,2.33
2023-02-26T07:28:33.047Z,2.36
2023-02-26T07:31:00.746Z,2.41
2023-02-26T07:33:28.430Z,2.44
2023-02-26T07:35:56.199Z,2.41
2023-02-26T07:38:24.354Z,2.40
2023-02-26T07:40:57.160Z,2.40
2023-02-26T07:43:25.002Z,2.43
2023-02-26T07:45:53.844Z,2.45
2023-02-26T07:48:21.682Z,2.51
2023-02-26T07:50:53.091Z,2.53
2023-02-26T07:53:22.049Z,2.55
2023-02-26T07:55:49.817Z,2.57
2023-02-26T07:58:18.040Z,2.58
2023-02-26T08:00:46.071Z,2.59
2023-02-26T08:03:14.926Z,2.61
2023-02-26T08:05:42.806Z,2.62
2023-02-26T08:08:10.699Z,2.66
2023-02-26T08:10:42.361Z,2.69
2023-02-26T08:13:10.360Z,2.68
2023-02-26T08:15:37.870Z,2.65
2023-02-26T08:18:06.018Z,2.65
2023-02-26T08:20:33.681Z,2.68
2023-02-26T08:23:01.504Z,2.69
2023-02-26T08:25:29.416Z,2.72
2023-02-26T08:27:58.178Z,2.73
2023-02-26T08:30:26.183Z,2.75
2023-02-26T08:32:54.017Z,2.77
2023-02-26T08:35:22.244Z,2.81
2023-02-26T08:37:50.051Z,2.84
2023-02-26T08:40:18.025Z,2.85
2023-02-26T08:42:45.814Z,2.85
2023-02-26T08:45:14.297Z,2.87
2023-02-26T08:47:55.588Z,2.86
2023-02-26T08:50:13.101Z,2.85
2023-02-26T08:52:40.681Z,2.87
2023-02-26T08:55:09.237Z,2.92
2023-02-26T08:57:37.256Z,2.94
2023-02-26T09:00:08.929Z,2.99
2023-02-26T09:02:37.900Z,3.00
2023-02-26T09:05:06.631Z,3.03
2023-02-26T09:07:34.512Z,3.05
2023-02-26T09:10:02.199Z,3.07
2023-02-26T09:12:30.190Z,3.12
2023-02-26T09:14:58.712Z,3.14
2023-02-26T09:17:26.506Z,3.21
2023-02-26T09:19:54.068Z,3.25
2023-02-26T09:22:22.072Z,3.30
2023-02-26T09:24:50.310Z,3.32
2023-02-26T09:27:18.445Z,3.34
2023-02-26T09:29:46.877Z,3.39
2023-02-26T09:32:18.290Z,3.40
2023-02-26T09:34:46.593Z,3.42
2023-02-26T09:37:14.792Z,3.42
2023-02-26T09:39:42.965Z,3.42
2023-02-26T09:42:30.815Z,3.41
2023-02-26T09:44:59.522Z,3.41
2023-02-26T09:47:36.895Z,3.36
2023-02-26T09:50:22.616Z,3.35
2023-02-26T09:53:13.537Z,3.37
2023-02-26T09:55:48.597Z,3.36
2023-02-26T09:58:30.150Z,3.37
2023-02-26T10:01:32.183Z,3.38
2023-02-26T10:04:19.461Z,3.37
2023-02-26T10:07:21.597Z,3.40
2023-02-26T10:10:04.216Z,3.45
2023-02-26T10:12:40.001Z,3.43
2023-02-26T10:15:23.735Z,3.41
2023-02-26T10:18:13.439Z,3.43
2023-02-26T10:20:58.733Z,3.41
2023-02-26T10:23:37.936Z,3.40
2023-02-26T10:26:25.746Z,3.42
2023-02-26T10:29:14.341Z,3.45
2023-02-26T10:32:11.783Z,3.46
2023-02-26T10:34:47.859Z,3.48
2023-02-26T10:38:02.521Z,3.53
2023-02-26T10:40:41.870Z,3.52
2023-02-26T10:43:30.110Z,3.53
2023-02-26T10:46:32.534Z,3.53
2023-02-26T10:49:25.593Z,3.54
2023-02-26T10:51:54.777Z,3.54
2023-02-26T10:54:33.202Z,3.58
2023-02-26T10:57:01.304Z,3.59
2023-02-26T10:59:29.180Z,3.65
2023-02-26T11:01:58.961Z,3.71
2023-02-26T11:04:28.212Z,3.76
2023-02-26T11:07:02.674Z,3.78
2023-02-26T11:09:35.899Z,3.77
2023-02-26T11:12:15.719Z,3.77
2023-02-26T11:14:48.027Z,3.79
2023-02-26T11:17:31.615Z,3.79
2023-02-26T11:20:08.447Z,3.81
2023-02-26T11:22:37.564Z,3.85
2023-02-26T11:25:07.107Z,3.89
2023-02-26T11:27:38.808Z,3.92
2023-02-26T11:30:20.206Z,3.92
2023-02-26T11:32:53.134Z,3.96
2023-02-26T11:35:26.155Z,4.00
2023-02-26T11:38:02.729Z,4.03
2023-02-26T11:40:42.413Z,4.08
2023-02-26T11:43:19.920Z,4.11
2023-02-26T11:45:57.064Z,4.13
2023-02-26T11:48:41.873Z,4.14
2023-02-26T11:51:18.137Z,4.16
2023-02-26T11:53:54.056Z,4.12
2023-02-26T11:56:41.458Z,4.10
2023-02-26T11:59:23.691Z,4.06
2023-02-26T12:01:53.627Z,4.00
2023-02-26T12:04:27.549Z,3.97
2023-02-26T12:06:56.477Z,3.97
2023-02-26T12:09:27.349Z,4.01
2023-02-26T12:12:21.808Z,4.04
2023-02-26T12:15:04.426Z,4.11
2023-02-26T12:17:58.856Z,4.14
2023-02-26T12:20:55.794Z,4.16
2023-02-26T12:23:47.378Z,4.15
2023-02-26T12:26:25.601Z,4.15
2023-02-26T12:29:21.393Z,4.14
2023-02-26T12:31:57.905Z,4.13
2023-02-26T12:34:54.749Z,4.10
2023-02-26T12:37:34.096Z,4.03
2023-02-26T12:40:50.263Z,4.01
2023-02-26T12:43:52.427Z,4.02
2023-02-26T12:47:05.734Z,4.04
2023-02-26T12:50:18.497Z,4.05
2023-02-26T12:53:21.820Z,4.07
2023-02-26T12:56:20.817Z,4.05
2023-02-26T12:59:09.123Z,4.06
2023-02-26T13:02:08.269Z,4.06
2023-02-26T13:05:01.541Z,4.09
2023-02-26T13:07:41.744Z,4.10
2023-02-26T13:10:36.170Z,4.10
2023-02-26T13:13:21.413Z,4.09
2023-02-26T13:16:03.389Z,3.98
2023-02-26T13:18:48.297Z,4.11
2023-02-26T13:21:30.373Z,4.10
2023-02-26T13:24:06.918Z,4.07
2023-02-26T13:26:36.498Z,4.06
2023-02-26T13:29:10.682Z,4.04
2023-02-26T13:31:50.520Z,4.02
2023-02-26T13:34:39.239Z,3.99
2023-02-26T13:37:27.786Z,3.99
2023-02-26T13:40:17.719Z,3.99
2023-02-26T13:43:00.156Z,4.00
2023-02-26T13:46:15.049Z,3.98
2023-02-26T13:49:01.991Z,3.98
2023-02-26T13:51:41.079Z,4.00
2023-02-26T13:54:23.254Z,4.01
2023-02-26T13:57:17.776Z,4.01
2023-02-26T13:59:54.275Z,4.00
2023-02-26T14:02:49.417Z,4.01
2023-02-26T14:05:37.658Z,4.02
2023-02-26T14:08:31.912Z,4.06
2023-02-26T14:11:25.146Z,4.10
2023-02-26T14:14:20.575Z,4.13
2023-02-26T14:17:06.816Z,4.12
2023-02-26T14:19:51.816Z,4.13
2023-02-26T14:22:33.938Z,4.13
2023-02-26T14:25:37.826Z,4.15
2023-02-26T14:28:27.515Z,4.14
2023-02-26T14:31:10.744Z,4.14
2023-02-26T14:33:48.112Z,4.15
2023-02-26T14:36:30.429Z,4.16
2023-02-26T14:39:04.529Z,4.13
2023-02-26T14:41:41.691Z,4.10
2023-02-26T14:44:21.400Z,4.08
2023-02-26T14:46:51.502Z,4.08
2023-02-26T14:49:30.682Z,4.09
2023-02-26T14:52:35.471Z,4.06
2023-02-26T14:55:47.731Z,4.04
2023-02-26T14:58:51.459Z,3.99
2023-02-26T15:01:57.742Z,3.98
2023-02-26T15:04:43.068Z,3.96
2023-02-26T15:07:28.434Z,3.93
2023-02-26T15:10:04.894Z,3.92
2023-02-26T15:12:58.367Z,3.91
2023-02-26T15:15:31.682Z,3.90
2023-02-26T15:18:13.480Z,3.90
2023-02-26T15:21:02.065Z,3.90
2023-02-26T15:23:43.162Z,3.88
2023-02-26T15:26:18.953Z,3.87
2023-02-26T15:28:50.614Z,3.88
2023-02-26T15:31:42.886Z,3.88
2023-02-26T15:34:13.927Z,3.86
2023-02-26T15:36:53.270Z,3.87
2023-02-26T15:39:23.933Z,3.85
2023-02-26T15:41:54.237Z,3.85
2023-02-26T15:44:31.875Z,3.85
2023-02-26T15:47:02.755Z,3.88
2023-02-26T15:49:37.958Z,3.88
2023-02-26T15:52:08.958Z,3.89
2023-02-26T15:54:52.953Z,3.90
2023-02-26T15:57:24.571Z,3.89
2023-02-26T15:59:57.410Z,3.89
2023-02-26T16:02:32.377Z,3.90
2023-02-26T16:05:03.442Z,3.91
2023-02-26T16:07:31.059Z,3.91
2023-02-26T16:10:04.363Z,3.89
2023-02-26T16:12:40.013Z,3.89
2023-02-26T16:15:15.596Z,3.88
2023-02-26T16:17:46.365Z,3.86
2023-02-26T16:20:19.760Z,3.84
2023-02-26T16:23:02.258Z,3.82
2023-02-26T16:25:50.123Z,3.80
2023-02-26T16:28:27.542Z,3.79
2023-02-26T16:30:59.252Z,3.78
2023-02-26T16:33:31.251Z,3.78
2023-02-26T16:36:17.666Z,3.78
2023-02-26T16:38:51.267Z,3.78
2023-02-26T16:41:25.479Z,3.77
2023-02-26T16:44:00.795Z,3.76
2023-02-26T16:46:43.313Z,3.77
2023-02-26T16:49:16.531Z,3.77
2023-02-26T16:51:45.890Z,3.75
2023-02-26T16:54:25.172Z,3.74
2023-02-26T16:57:22.558Z,3.73
2023-02-26T16:59:55.193Z,3.70
2023-02-26T17:02:33.052Z,3.65
2023-02-26T17:05:12.132Z,3.62
2023-02-26T17:08:08.157Z,3.61
2023-02-26T17:10:47.697Z,3.62
2023-02-26T17:13:19.746Z,3.62
2023-02-26T17:15:48.747Z,3.64
2023-02-26T17:18:17.213Z,3.65
2023-02-26T17:20:45.684Z,3.68
2023-02-26T17:23:16.763Z,3.70
2023-02-26T17:25:49.804Z,3.73
2023-02-26T17:28:24.779Z,3.74
2023-02-26T17:30:54.190Z,3.78
2023-02-26T17:33:22.862Z,3.78
2023-02-26T17:35:58.531Z,3.81
2023-02-26T17:38:27.490Z,3.81
2023-02-26T17:40:57.484Z,3.80
2023-02-26T17:43:25.795Z,3.80
2023-02-26T17:45:54.179Z,3.79
2023-02-26T17:48:23.424Z,3.81
2023-02-26T17:50:57.371Z,3.82
2023-02-26T17:53:31.203Z,3.83
2023-02-26T17:55:59.740Z,3.80
2023-02-26T17:58:33.017Z,3.78
2023-02-26T18:01:03.847Z,3.76
2023-02-26T18:03:31.713Z,3.75
2023-02-26T18:06:00.170Z,3.75
2023-02-26T18:08:32.085Z,3.75
2023-02-26T18:11:01.979Z,3.76
2023-02-26T18:13:30.632Z,3.74
2023-02-26T18:16:01.551Z,3.73
2023-02-26T18:18:31.896Z,3.70
2023-02-26T18:21:00.664Z,3.67
2023-02-26T18:23:29.233Z,3.66
2023-02-26T18:26:04.304Z,3.63
2023-02-26T18:28:38.283Z,3.62
2023-02-26T18:31:08.306Z,3.60
2023-02-26T18:33:40.681Z,3.59
2023-02-26T18:36:14.095Z,3.57
2023-02-26T18:38:49.864Z,3.57
2023-02-26T18:41:18.588Z,3.57
2023-02-26T18:43:46.394Z,3.57
2023-02-26T18:46:14.337Z,3.55
2023-02-26T18:48:41.978Z,3.52
2023-02-26T18:51:10.861Z,3.51
2023-02-26T18:53:39.088Z,3.51
2023-02-26T18:56:07.585Z,3.51
2023-02-26T18:58:48.755Z,3.51
2023-02-26T19:01:16.763Z,3.50
2023-02-26T19:03:44.877Z,3.49
2023-02-26T19:06:15.899Z,3.50
2023-02-26T19:08:43.930Z,3.50
2023-02-26T19:11:11.991Z,3.53
2023-02-26T19:13:39.649Z,3.53
2023-02-26T19:16:09.663Z,3.56
2023-02-26T19:18:37.686Z,3.58
2023-02-26T19:21:05.630Z,3.58
2023-02-26T19:23:33.380Z,3.57
2023-02-26T19:26:01.135Z,3.58
2023-02-26T19:28:28.828Z,3.58
2023-02-26T19:30:58.317Z,3.61
2023-02-26T19:33:26.564Z,3.59
2023-02-26T19:35:54.655Z,3.61
2023-02-26T19:38:23.116Z,3.61
2023-02-26T19:40:51.232Z,3.61
2023-02-26T19:43:19.013Z,3.62
2023-02-26T19:45:46.626Z,3.59
2023-02-26T19:48:14.426Z,3.55
2023-02-26T19:50:42.471Z,3.55
2023-02-26T19:53:11.092Z,3.55
2023-02-26T19:55:39.128Z,3.55
2023-02-26T19:58:07.458Z,3.55
2023-02-26T20:00:37.255Z,3.54
2023-02-26T20:03:05.355Z,3.53
2023-02-26T20:05:36.211Z,3.52
2023-02-26T20:08:06.636Z,3.50
2023-02-26T20:10:34.288Z,3.47
2023-02-26T20:13:03.365Z,3.46
2023-02-26T20:15:31.425Z,3.47
2023-02-26T20:18:02.923Z,3.49
2023-02-26T20:20:31.359Z,3.51
2023-02-26T20:22:59.310Z,3.53
2023-02-26T20:25:28.935Z,3.56
2023-02-26T20:27:56.905Z,3.58
2023-02-26T20:30:26.416Z,3.59
2023-02-26T20:32:54.602Z,3.59
2023-02-26T20:35:24.323Z,3.59
2023-02-26T20:37:52.066Z,3.62
2023-02-26T20:40:20.712Z,3.62
2023-02-26T20:42:48.568Z,3.62
2023-02-26T20:45:17.320Z,3.59
2023-02-26T20:47:59.125Z,3.61
2023-02-26T20:50:27.471Z,3.61
2023-02-26T20:52:59.568Z,3.63
2023-02-26T20:55:27.949Z,3.51
2023-02-26T20:57:55.961Z,3.64
2023-02-26T21:00:24.213Z,3.66
2023-02-26T21:02:52.353Z,3.69
2023-02-26T21:05:20.673Z,3.69
2023-02-26T21:07:50.094Z,3.74
2023-02-26T21:10:19.966Z,3.76
2023-02-26T21:12:47.929Z,3.77
2023-02-26T21:15:15.865Z,3.76
2023-02-26T21:17:44.043Z,3.74
2023-02-26T21:20:15.719Z,3.71
2023-02-26T21:22:45.651Z,3.70
2023-02-26T21:25:13.806Z,3.69
2023-02-26T21:27:42.462Z,3.66
2023-02-26T21:30:16.325Z,3.63
2023-02-26T21:32:44.473Z,3.59
2023-02-26T21:35:15.886Z,3.58
2023-02-26T21:37:44.769Z,3.57
2023-02-26T21:40:14.650Z,3.55
2023-02-26T21:42:44.575Z,3.52
2023-02-26T21:45:13.101Z,3.50
2023-02-26T21:47:41.168Z,3.49
2023-02-26T21:50:12.039Z,3.48
2023-02-26T21:52:39.610Z,3.49
2023-02-26T21:55:11.219Z,3.49
2023-02-26T21:57:39.643Z,3.50
2023-02-26T22:00:11.940Z,3.49
2023-02-26T22:02:44.185Z,3.47
2023-02-26T22:05:12.568Z,3.45
2023-02-26T22:07:40.595Z,3.43
2023-02-26T22:10:10.267Z,3.45
2023-02-26T22:12:38.119Z,3.42
2023-02-26T22:15:07.609Z,3.42
2023-02-26T22:17:35.576Z,3.40
2023-02-26T22:20:09.557Z,3.37
2023-02-26T22:22:40.821Z,3.34
2023-02-26T22:25:11.307Z,3.32
2023-02-26T22:27:39.182Z,3.30
2023-02-26T22:30:09.217Z,3.28
2023-02-26T22:32:36.897Z,3.28
2023-02-26T22:35:05.740Z,3.27
2023-02-26T22:37:33.647Z,3.25
2023-02-26T22:40:03.215Z,3.18
2023-02-26T22:42:30.955Z,3.23
2023-02-26T22:44:59.077Z,3.22
2023-02-26T22:47:26.866Z,3.22
2023-02-26T22:49:54.391Z,3.23
2023-02-26T22:52:22.321Z,3.22
2023-02-26T22:54:50.146Z,3.23
2023-02-26T22:57:19.941Z,3.23
2023-02-26T22:59:48.219Z,3.24
2023-02-26T23:02:15.843Z,3.23
2023-02-26T23:04:43.832Z,3.24
2023-02-26T23:07:12.057Z,3.22
2023-02-26T23:09:40.859Z,3.20
2023-02-26T23:12:09.491Z,3.20
2023-02-26T23:14:37.403Z,3.18
2023-02-26T23:17:05.114Z,3.16
2023-02-26T23:19:33.037Z,3.14
2023-02-26T23:22:01.270Z,3.11
2023-02-26T23:24:29.295Z,3.11
2023-02-26T23:26:57.269Z,3.13
2023-02-26T23:29:24.886Z,3.14
2023-02-26T23:31:52.712Z,3.14
2023-02-26T23:34:20.971Z,3.14
2023-02-26T23:36:48.776Z,3.13
2023-02-26T23:39:16.549Z,3.10
2023-02-26T23:41:44.218Z,3.15
2023-02-26T23:44:11.942Z,3.16
2023-02-26T23:46:39.414Z,3.18
2023-02-26T23:49:08.943Z,3.15
2023-02-26T23:51:37.945Z,3.13
2023-02-26T23:54:06.082Z,3.11
2023-02-26T23:56:33.732Z,3.10
2023-02-26T23:59:02.437Z,3.07
